createdAt,value
2023-03-24T01:32:18.999Z,3.40
2023-03-24T01:37:27.763Z,4.05
2023-03-24T01:42:31.262Z,4.78
2023-03-24T01:47:39.503Z,3.30
2023-03-24T01:52:56.365Z,3.88
2023-03-24T01:58:07.165Z,7.50
2023-03-24T02:03:19.579Z,5.05
2023-03-24T02:08:29.692Z,4.80
2023-03-24T02:13:33.052Z,6.45
2023-03-24T02:18:49.858Z,6.15
2023-03-24T02:24:29.749Z,4.47
2023-03-24T02:30:06.768Z,4.43
2023-03-24T02:35:57.593Z,3.85
2023-03-24T02:41:19.215Z,3.08
2023-03-24T02:46:27.419Z,4.38
2023-03-24T02:51:41.312Z,5.75
2023-03-24T02:57:01.295Z,4.75
2023-03-24T03:02:09.412Z,4.22
2023-03-24T03:07:21.895Z,2.83
2023-03-24T03:12:33.831Z,4.72
2023-03-24T03:17:41.760Z,3.95
2023-03-24T03:22:50.162Z,4.15
2023-03-24T03:28:05.612Z,7.65
2023-03-24T04:41:03.823Z,9.18
2023-03-24T04:46:10.057Z,6.70
2023-03-24T04:51:30.012Z,6.35
2023-03-24T04:57:06.410Z,7.88
2023-03-24T05:02:11.493Z,8.98
2023-03-24T05:07:17.474Z,6.65
2023-03-24T05:12:24.481Z,2.22
2023-03-24T05:17:30.063Z,3.33
2023-03-24T05:22:34.852Z,0.82
2023-03-24T05:27:39.651Z,0.80
2023-03-24T05:32:48.214Z,1.10
2023-03-24T05:37:53.395Z,0.38
2023-03-24T05:43:00.772Z,0.57
2023-03-24T05:48:07.040Z,1.38
2023-03-24T05:53:10.211Z,2.67
2023-03-24T05:58:16.547Z,0.65
2023-03-24T06:03:19.833Z,0.47
2023-03-24T06:08:26.123Z,1.08
2023-03-24T06:13:33.080Z,1.42
2023-03-24T06:18:43.425Z,1.17
2023-03-24T06:23:51.369Z,1.17
2023-03-24T06:28:59.039Z,1.00
2023-03-24T06:34:04.754Z,0.38
2023-03-24T06:39:09.692Z,0.47
2023-03-24T06:49:19.334Z,1.55
2023-03-24T06:54:23.607Z,3.40
2023-03-24T06:59:29.999Z,2.70
2023-03-24T07:04:37.975Z,2.42
2023-03-24T07:09:43.395Z,1.67
2023-03-24T07:14:50.232Z,2.85
2023-03-24T07:19:53.364Z,4.03
2023-03-24T07:24:58.219Z,4.55
2023-03-24T07:30:07.237Z,2.35
2023-03-24T07:35:14.123Z,4.00
2023-03-24T07:40:22.083Z,2.40
2023-03-24T07:45:28.515Z,2.80
2023-03-24T07:50:32.465Z,6.40
2023-03-24T07:55:44.383Z,3.17
2023-03-24T08:00:55.192Z,2.53
2023-03-24T08:06:02.251Z,1.23
2023-03-24T08:11:10.177Z,1.77
2023-03-24T08:16:34.696Z,4.07
2023-03-24T08:21:47.573Z,3.13
2023-03-24T08:26:58.775Z,2.13
2023-03-24T08:32:05.263Z,4.30
2023-03-24T08:37:08.850Z,2.83
2023-03-24T08:42:13.965Z,3.72
2023-03-24T08:47:46.098Z,1.73
2023-03-24T08:52:59.118Z,3.97
2023-03-24T11:14:39.880Z,6.10
2023-03-24T11:19:56.830Z,4.72
2023-03-24T11:25:14.381Z,8.13
2023-03-24T11:30:26.412Z,5.88
2023-03-24T11:35:41.793Z,4.97
2023-03-24T11:41:01.576Z,8.13
2023-03-24T11:46:13.432Z,7.15
2023-03-24T11:51:26.008Z,5.20
2023-03-24T13:38:38.117Z,7.28
2023-03-24T13:43:51.396Z,7.75
2023-03-24T13:49:03.488Z,10.60
2023-03-24T13:54:17.127Z,10.43
2023-03-24T13:59:41.534Z,11.27
2023-03-24T14:10:05.536Z,8.82
2023-03-24T14:15:21.093Z,9.50
2023-03-24T14:20:41.158Z,12.52
2023-03-24T16:00:16.124Z,11.88
2023-03-24T16:05:28.500Z,11.93
2023-03-24T16:10:40.320Z,11.68
2023-03-24T16:15:46.887Z,12.30
2023-03-24T16:20:54.496Z,10.35
2023-03-24T16:25:59.257Z,10.38
2023-03-24T16:31:16.614Z,14.13
2023-03-24T17:39:45.833Z,12.43
2023-03-24T17:44:50.138Z,15.90
2023-03-24T17:49:53.305Z,14.20
2023-03-24T17:55:00.372Z,16.98
2023-03-24T18:00:08.432Z,21.88
2023-03-24T18:05:18.580Z,16.25
2023-03-24T18:10:32.037Z,18.30
2023-03-24T18:15:40.005Z,17.88
2023-03-24T18:21:03.873Z,15.32
2023-03-24T18:26:23.602Z,12.95
2023-03-24T18:31:28.436Z,13.43
2023-03-24T18:36:34.494Z,28.65
2023-03-24T18:41:39.171Z,27.20
2023-03-24T18:46:51.255Z,28.17
2023-03-24T18:51:59.743Z,25.77
2023-03-24T18:57:06.415Z,20.83
2023-03-24T19:02:13.270Z,18.90
